Crew | Aerofun Virtual



 METAR AND TAF INFORMATION
METAR FOR LEGR
ADDS - METARS form results

(0516 UTC 20 May 2019)
Data provider http://aviationweather.gov/metar/data/
 
METAR text: LEGR 200500Z 19002KT CAVOK 10/08 Q1013
Conditions at: LEGR (GRANADA AIRPORT , ES) observed 0500 UTC 20 May 2019
Temperature: 10.0°C (50°F)
Dewpoint: 8.0°C (46°F) [RH = 87%]
Pressure (altimeter): 29.91 inches Hg (1013.0 mb)
Winds: from the S (190 degrees) at 2 MPH (2 knots; 1.0 m/s)
Visibility: 6 or more miles (10+ km)
Ceiling: ceiling and visibility are OK
Clouds: unknown
Weather: no significant weather observed at this time

METAR text: LEGR 200430Z 00000KT CAVOK 12/10 Q1013
Conditions at: LEGR (GRANADA AIRPORT , ES) observed 0430 UTC 20 May 2019
Temperature: 12.0°C (54°F)
Dewpoint: 10.0°C (50°F) [RH = 88%]
Pressure (altimeter): 29.91 inches Hg (1013.0 mb)
Winds: calm
Visibility: 6 or more miles (10+ km)
Ceiling: ceiling and visibility are OK
Clouds: unknown
Weather: no significant weather observed at this time

Forecast for: LEGR (GRANADA AIRPORT , ES)
Text: TAF LEGR 200200Z 2003/2103 VRB02KT 9999 FEW070 TX26/2015Z TN11/2006Z
Forecast period: 0300 to 1200 UTC 20 May 2019
Forecast type: FROM: standard forecast or significant change
Winds: variable direction winds at 2 MPH (2 knots; 1.0 m/s)
Visibility: 6 or more miles 10+ km)
Ceiling: at least 12,000 feet AGL
Clouds: few clouds at 7000 feet AGL
Weather: no significant weather forecast for this period
Text: BECMG 2012/2014 28010KT
Forecast period: 1200 to 2100 UTC 20 May 2019
Forecast type: BECOMING: Conditions expected to become as follows by 1400 UTC 20 May 2019
Winds: from the W (280 degrees) at 12 MPH (10 knots; 5.1 m/s)
Visibility: 6 or more miles 10+ km)
Ceiling: at least 12,000 feet AGL
Clouds: few clouds at 7000 feet AGL
Weather: no significant weather forecast for this period
Text: BECMG 2021/2023 VRB02KT
Forecast period: 2100 UTC 20 May 2019 to 0300 UTC 21 May 2019
Forecast type: BECOMING: Conditions expected to become as follows by 2300 UTC 20 May 2019
Winds: variable direction winds at 2 MPH (2 knots; 1.0 m/s)
Visibility: 6 or more miles 10+ km)
Ceiling: at least 12,000 feet AGL
Clouds: few clouds at 7000 feet AGL
Weather: no significant weather forecast for this period

 AIRPORT MAP

 RUNWAY INFORMATION
Runway 09 Runway length 9514 ft Runway width 148 ft
Runway elevation 1842 ft Runway displaced threshold 0 ft Runway heading 90
Runway 27 Runway length 9514 ft Runway width 148 ft
Runway elevation 1860 ft Runway displaced threshold 0 ft Runway heading 270

 AIRPORT FREQUENCIES
Type GND Name GND Frequency 121.7 MHZ
Type TWR Name TWR Frequency 118.85 MHZ

 AIRPORT NEAR NAVIGATION AIDS
Type VOR-DME Name Granada Frequency 113400 KHZ